createdAt,value
2024-05-09T00:00:40.278Z,12.43
2024-05-09T00:03:09.889Z,12.47
2024-05-09T00:05:38.121Z,12.47
2024-05-09T00:08:05.536Z,12.48
2024-05-09T00:10:37.097Z,12.49
2024-05-09T00:13:09.600Z,12.47
2024-05-09T00:15:37.108Z,12.46
2024-05-09T00:18:05.377Z,12.34
2024-05-09T00:20:39.190Z,12.29
2024-05-09T00:23:12.462Z,12.26
2024-05-09T00:25:40.456Z,12.25
2024-05-09T00:28:07.207Z,12.25
2024-05-09T00:30:36.334Z,12.26
2024-05-09T00:33:09.148Z,12.28
2024-05-09T00:35:37.353Z,12.29
2024-05-09T00:38:04.683Z,12.30
2024-05-09T00:40:41.708Z,12.27
2024-05-09T00:43:14.614Z,12.28
2024-05-09T00:45:42.615Z,12.32
2024-05-09T00:48:13.919Z,12.36
2024-05-09T00:50:45.105Z,12.41
2024-05-09T00:53:14.431Z,12.40
2024-05-09T00:55:42.102Z,12.38
2024-05-09T00:58:12.216Z,12.32
2024-05-09T01:00:41.150Z,12.27
2024-05-09T01:03:11.829Z,12.31
2024-05-09T01:05:40.686Z,12.31
2024-05-09T01:08:08.933Z,12.25
2024-05-09T01:10:36.870Z,12.22
2024-05-09T01:13:07.508Z,12.21
2024-05-09T01:15:35.339Z,12.21
2024-05-09T01:18:13.231Z,12.18
2024-05-09T01:20:44.264Z,12.17
2024-05-09T01:23:14.528Z,12.16
2024-05-09T01:25:43.405Z,12.16
2024-05-09T01:28:10.251Z,12.11
2024-05-09T01:30:37.976Z,12.14
2024-05-09T01:33:08.810Z,12.11
2024-05-09T01:35:37.737Z,12.18
2024-05-09T01:38:05.101Z,12.20
2024-05-09T01:40:37.733Z,12.22
2024-05-09T01:43:08.020Z,12.22
2024-05-09T01:45:35.199Z,12.24
2024-05-09T01:48:02.692Z,12.24
2024-05-09T01:50:38.022Z,12.24
2024-05-09T01:53:09.212Z,12.24
2024-05-09T01:55:36.286Z,12.22
2024-05-09T01:58:03.031Z,12.22
2024-05-09T02:00:38.643Z,12.23
2024-05-09T02:03:11.049Z,12.24
2024-05-09T02:05:40.138Z,12.24
2024-05-09T02:08:07.405Z,12.26
2024-05-09T02:10:34.219Z,12.26
2024-05-09T02:13:01.238Z,12.27
2024-05-09T02:15:28.161Z,12.27
2024-05-09T02:17:55.396Z,12.29
2024-05-09T02:20:30.678Z,12.30
2024-05-09T02:23:04.622Z,12.30
2024-05-09T02:25:32.514Z,12.27
2024-05-09T02:27:59.539Z,12.27
2024-05-09T02:30:36.087Z,12.26
2024-05-09T02:33:07.655Z,12.24
2024-05-09T02:35:34.858Z,12.25
2024-05-09T02:38:02.034Z,12.21
2024-05-09T02:40:36.209Z,12.19
2024-05-09T02:43:06.465Z,12.18
2024-05-09T02:45:33.503Z,12.18
2024-05-09T02:48:01.370Z,12.18
2024-05-09T02:50:34.701Z,12.16
2024-05-09T02:53:06.221Z,12.16
2024-05-09T02:55:34.969Z,12.18
2024-05-09T02:58:01.818Z,12.19
2024-05-09T03:00:36.893Z,12.23
2024-05-09T03:03:12.905Z,12.24
2024-05-09T03:05:42.356Z,12.24
2024-05-09T03:08:09.548Z,12.24
2024-05-09T03:10:38.523Z,12.21
2024-05-09T03:13:15.433Z,12.23
2024-05-09T03:15:43.833Z,12.23
2024-05-09T03:18:11.515Z,12.23
2024-05-09T03:20:39.387Z,12.24
2024-05-09T03:23:09.148Z,12.24
2024-05-09T03:25:38.410Z,12.23
2024-05-09T03:28:05.785Z,12.25
2024-05-09T03:30:40.036Z,12.25
2024-05-09T03:33:15.700Z,12.28
2024-05-09T03:35:46.658Z,12.27
2024-05-09T03:38:13.841Z,12.25
2024-05-09T03:40:49.039Z,12.25
2024-05-09T03:43:17.048Z,12.26
2024-05-09T03:45:44.373Z,12.22
2024-05-09T03:48:11.695Z,12.26
2024-05-09T03:50:38.878Z,12.27
2024-05-09T03:53:06.486Z,12.27
2024-05-09T03:55:33.302Z,12.29
2024-05-09T03:58:00.138Z,12.31
2024-05-09T04:00:35.147Z,12.32
2024-05-09T04:03:07.750Z,12.34
2024-05-09T04:05:38.153Z,12.36
2024-05-09T04:08:05.956Z,12.36
2024-05-09T04:10:34.600Z,12.36
2024-05-09T04:13:03.129Z,12.39
2024-05-09T04:15:30.283Z,12.39
2024-05-09T04:17:57.198Z,12.38
2024-05-09T04:20:33.659Z,12.34
2024-05-09T04:23:08.362Z,12.34
2024-05-09T04:25:36.020Z,12.32
2024-05-09T04:28:03.173Z,12.36
2024-05-09T04:30:36.660Z,12.37
2024-05-09T04:33:08.390Z,12.39
2024-05-09T04:35:37.725Z,12.41
2024-05-09T04:38:05.329Z,12.44
2024-05-09T04:40:35.552Z,12.42
2024-05-09T04:43:05.299Z,12.49
2024-05-09T04:45:32.329Z,12.50
2024-05-09T04:47:59.452Z,12.52
2024-05-09T04:50:35.429Z,12.54
2024-05-09T04:53:05.952Z,12.58
2024-05-09T04:55:33.305Z,12.56
2024-05-09T04:58:00.281Z,12.63
2024-05-09T05:00:40.605Z,12.64
2024-05-09T05:03:23.718Z,12.65
2024-05-09T05:05:59.847Z,12.68
2024-05-09T05:08:26.794Z,12.70
2024-05-09T05:10:53.760Z,12.70
2024-05-09T05:13:22.156Z,12.73
2024-05-09T05:15:52.158Z,12.76
2024-05-09T05:18:29.726Z,12.79
2024-05-09T05:20:58.159Z,12.80
2024-05-09T05:23:28.195Z,12.85
2024-05-09T05:25:55.588Z,12.89
2024-05-09T05:28:25.809Z,12.91
2024-05-09T05:30:52.594Z,12.92
2024-05-09T05:33:20.001Z,12.90
2024-05-09T05:35:47.757Z,12.92
2024-05-09T05:38:14.687Z,12.92
2024-05-09T05:40:41.503Z,12.94
2024-05-09T05:43:18.412Z,12.94
2024-05-09T05:45:46.017Z,12.96
2024-05-09T05:48:14.140Z,12.99
2024-05-09T05:50:41.222Z,12.99
2024-05-09T05:53:09.513Z,13.02
2024-05-09T05:55:41.046Z,13.07
2024-05-09T05:58:15.105Z,13.13
2024-05-09T06:00:42.739Z,13.19
2024-05-09T06:03:12.136Z,13.23
2024-05-09T06:05:44.305Z,13.27
2024-05-09T06:08:11.975Z,13.29
2024-05-09T06:10:40.826Z,13.32
2024-05-09T06:13:12.683Z,13.35
2024-05-09T06:15:40.645Z,13.35
2024-05-09T06:18:08.756Z,13.37
2024-05-09T06:20:38.019Z,13.37
2024-05-09T06:23:09.602Z,13.39
2024-05-09T06:25:37.038Z,13.40
2024-05-09T06:28:04.273Z,13.37
2024-05-09T06:30:38.797Z,13.37
2024-05-09T06:33:11.165Z,13.37
2024-05-09T06:35:39.915Z,13.46
2024-05-09T06:38:09.467Z,13.51
2024-05-09T06:40:39.601Z,13.55
2024-05-09T06:43:19.006Z,13.58
2024-05-09T06:45:50.656Z,13.63
2024-05-09T06:48:19.442Z,13.68
2024-05-09T06:50:46.963Z,13.72
2024-05-09T06:53:14.994Z,13.77
2024-05-09T06:55:42.240Z,13.82
2024-05-09T06:58:09.672Z,13.87
2024-05-09T07:00:39.894Z,13.91
2024-05-09T07:03:18.130Z,13.97
2024-05-09T07:05:47.801Z,14.01
2024-05-09T07:08:16.321Z,14.08
2024-05-09T07:10:43.526Z,14.13
2024-05-09T07:13:11.688Z,14.15
2024-05-09T07:15:39.253Z,14.21
2024-05-09T07:18:13.839Z,14.27
2024-05-09T07:20:41.390Z,14.36
2024-05-09T07:23:12.200Z,14.37
2024-05-09T07:25:40.450Z,14.51
2024-05-09T07:28:18.254Z,14.52
2024-05-09T07:30:45.567Z,14.47
2024-05-09T07:33:17.252Z,14.36
2024-05-09T07:35:44.236Z,14.32
2024-05-09T07:38:11.121Z,14.33
2024-05-09T07:40:38.794Z,14.35
2024-05-09T07:43:06.781Z,14.33
2024-05-09T07:52:23.587Z,14.49
2024-05-09T07:53:38.761Z,14.53
2024-05-09T07:56:09.113Z,14.55
2024-05-09T07:58:36.616Z,14.61
2024-05-09T08:01:03.551Z,14.61
2024-05-09T08:03:31.611Z,14.70
2024-05-09T08:05:58.374Z,14.73
2024-05-09T08:08:25.095Z,14.80
2024-05-09T08:10:52.115Z,14.93
2024-05-09T08:13:19.017Z,15.01
2024-05-09T08:15:45.938Z,15.08
2024-05-09T08:18:13.021Z,15.13
2024-05-09T08:20:41.529Z,15.21
2024-05-09T08:23:08.355Z,15.24
2024-05-09T08:25:35.129Z,15.28
2024-05-09T08:28:04.373Z,15.34
2024-05-09T08:30:36.691Z,15.37
2024-05-09T08:33:06.624Z,15.31
2024-05-09T08:35:34.868Z,15.24
2024-05-09T08:38:06.961Z,15.17
2024-05-09T08:40:36.544Z,15.17
2024-05-09T08:43:12.737Z,15.19
2024-05-09T08:45:43.982Z,15.24
2024-05-09T08:48:13.867Z,15.28
2024-05-09T08:50:41.788Z,15.30
2024-05-09T08:53:09.185Z,15.39
2024-05-09T08:55:40.529Z,15.42
2024-05-09T08:58:15.393Z,15.39
2024-05-09T09:00:44.331Z,15.41
2024-05-09T09:03:15.554Z,15.43
2024-05-09T09:05:55.467Z,15.41
2024-05-09T09:08:22.872Z,15.47
2024-05-09T09:10:53.104Z,15.49
2024-05-09T09:13:20.404Z,15.53
2024-05-09T09:15:48.799Z,15.60
2024-05-09T09:18:16.419Z,15.63
2024-05-09T09:20:44.435Z,15.71
2024-05-09T09:23:11.279Z,15.78
2024-05-09T09:25:41.210Z,15.81
2024-05-09T09:28:08.972Z,15.87
2024-05-09T09:30:40.445Z,15.83
2024-05-09T09:33:09.816Z,15.91
2024-05-09T09:35:38.965Z,16.01
2024-05-09T09:38:07.841Z,16.05
2024-05-09T09:40:40.753Z,16.13
2024-05-09T09:43:14.775Z,16.20
2024-05-09T09:45:44.246Z,16.25
2024-05-09T09:48:13.987Z,16.29
2024-05-09T09:50:42.326Z,16.34
2024-05-09T09:53:10.445Z,16.41
2024-05-09T09:55:39.685Z,16.46
2024-05-09T09:58:09.552Z,16.51
2024-05-09T10:00:39.023Z,16.52
2024-05-09T10:03:05.950Z,16.57
2024-05-09T10:05:34.154Z,16.63
2024-05-09T10:08:06.488Z,16.68
2024-05-09T10:10:34.875Z,16.72
2024-05-09T10:13:08.806Z,16.76
2024-05-09T10:15:52.395Z,16.80
2024-05-09T10:18:29.183Z,16.85
2024-05-09T10:20:57.685Z,16.88
2024-05-09T10:23:36.321Z,16.92
2024-05-09T10:26:06.496Z,16.95
2024-05-09T10:28:38.052Z,17.00
2024-05-09T10:31:11.436Z,16.98
2024-05-09T10:33:39.285Z,17.07
2024-05-09T10:36:20.179Z,17.10
2024-05-09T10:38:48.554Z,17.15
2024-05-09T10:41:17.252Z,17.18
2024-05-09T10:43:44.245Z,17.21
2024-05-09T10:46:11.814Z,17.29
2024-05-09T10:48:42.453Z,17.32
2024-05-09T10:51:09.724Z,17.35
2024-05-09T10:53:43.318Z,17.40
2024-05-09T10:56:11.189Z,17.45
2024-05-09T10:58:38.085Z,17.52
2024-05-09T11:01:07.252Z,17.57
2024-05-09T11:03:35.358Z,17.61
2024-05-09T11:06:02.831Z,17.64
2024-05-09T11:08:31.943Z,17.68
2024-05-09T11:10:59.848Z,17.73
2024-05-09T11:13:31.215Z,17.80
2024-05-09T11:16:00.392Z,17.79
2024-05-09T11:18:31.951Z,17.82
2024-05-09T11:21:02.105Z,17.89
2024-05-09T11:23:32.107Z,17.95
2024-05-09T11:25:59.053Z,18.02
2024-05-09T11:28:28.783Z,18.06
2024-05-09T11:31:06.572Z,18.08
2024-05-09T11:33:36.846Z,18.18
2024-05-09T11:36:04.535Z,18.19
2024-05-09T11:38:31.775Z,18.24
2024-05-09T11:40:58.572Z,18.28
2024-05-09T11:43:25.425Z,18.35
2024-05-09T11:45:52.788Z,18.42
2024-05-09T11:48:19.835Z,18.49
2024-05-09T11:50:46.765Z,18.57
2024-05-09T11:53:13.547Z,18.67
2024-05-09T11:55:40.278Z,18.78
2024-05-09T11:58:08.412Z,18.91
2024-05-09T12:00:37.463Z,19.07
2024-05-09T12:03:06.003Z,19.15
2024-05-09T12:05:34.209Z,19.25
2024-05-09T12:08:01.593Z,19.37
2024-05-09T12:12:58.612Z,19.65
2024-05-09T12:15:25.416Z,19.76
2024-05-09T12:17:52.400Z,19.87
2024-05-09T12:20:28.649Z,19.96
2024-05-09T12:23:02.390Z,20.08
2024-05-09T12:25:29.276Z,20.14
2024-05-09T12:27:56.056Z,20.28
2024-05-09T12:30:32.758Z,20.38
2024-05-09T12:33:04.683Z,20.49
2024-05-09T12:35:31.939Z,20.61
2024-05-09T12:37:58.717Z,20.68
2024-05-09T12:40:34.369Z,20.75
2024-05-09T12:43:04.693Z,20.86
2024-05-09T12:45:31.950Z,20.85
2024-05-09T12:47:59.598Z,20.92
2024-05-09T12:50:32.398Z,20.93
2024-05-09T12:53:02.199Z,21.05
2024-05-09T12:55:33.989Z,21.17
2024-05-09T12:58:08.326Z,21.18
2024-05-09T13:00:35.491Z,21.20
2024-05-09T13:03:02.554Z,21.21
2024-05-09T13:05:29.786Z,21.34
2024-05-09T13:07:57.327Z,21.42
2024-05-09T13:10:31.255Z,21.43
2024-05-09T13:13:00.564Z,21.62
2024-05-09T13:15:28.025Z,21.72
2024-05-09T13:17:57.149Z,21.85
2024-05-09T13:20:32.083Z,22.04
2024-05-09T13:23:02.677Z,22.19
2024-05-09T13:25:29.651Z,22.33
2024-05-09T13:27:57.316Z,22.41
2024-05-09T13:30:33.714Z,22.33
2024-05-09T13:33:06.575Z,22.21
2024-05-09T13:35:35.299Z,22.19
2024-05-09T13:38:02.894Z,22.22
2024-05-09T13:40:34.232Z,22.17
2024-05-09T13:43:03.862Z,22.09
2024-05-09T13:45:30.906Z,22.08
2024-05-09T13:47:58.008Z,22.13
2024-05-09T13:50:33.174Z,22.19
2024-05-09T13:53:03.294Z,22.28
2024-05-09T13:55:30.228Z,22.35
2024-05-09T13:57:57.039Z,22.41
2024-05-09T14:00:37.900Z,22.48
2024-05-09T14:03:10.816Z,22.37
2024-05-09T14:05:38.515Z,22.38
2024-05-09T14:08:06.075Z,22.44
2024-05-09T14:10:33.086Z,22.57
2024-05-09T14:13:01.039Z,22.67
2024-05-09T14:15:28.196Z,22.76
2024-05-09T14:17:55.629Z,22.83
2024-05-09T14:20:30.588Z,22.91
2024-05-09T14:23:00.391Z,22.98
2024-05-09T14:25:35.741Z,23.04
2024-05-09T14:28:04.505Z,23.12
2024-05-09T14:30:36.808Z,23.20
2024-05-09T14:33:06.406Z,23.21
2024-05-09T14:35:34.297Z,23.29
2024-05-09T14:38:01.314Z,23.29
2024-05-09T14:40:38.800Z,23.32
2024-05-09T14:43:11.342Z,23.32
2024-05-09T14:45:38.903Z,23.33
2024-05-09T14:48:07.106Z,23.34
2024-05-09T14:50:37.583Z,23.27
2024-05-09T14:53:10.987Z,23.23
2024-05-09T14:55:40.059Z,23.19
2024-05-09T14:58:09.001Z,23.15
2024-05-09T15:00:42.273Z,23.19
2024-05-09T15:03:11.729Z,23.21
2024-05-09T15:05:38.822Z,23.27
2024-05-09T15:08:08.998Z,23.32
2024-05-09T15:10:37.206Z,23.33
2024-05-09T15:13:06.566Z,23.33
2024-05-09T15:15:35.057Z,23.36
2024-05-09T15:18:02.130Z,23.37
2024-05-09T15:20:34.631Z,23.41
2024-05-09T15:23:04.486Z,23.42
2024-05-09T15:25:31.625Z,23.47
2024-05-09T15:27:58.528Z,23.52
2024-05-09T15:32:55.088Z,23.54
2024-05-09T15:35:21.878Z,23.56
2024-05-09T15:37:48.642Z,23.63
2024-05-09T15:40:25.960Z,23.67
2024-05-09T15:43:01.869Z,23.68
2024-05-09T15:45:32.213Z,23.71
2024-05-09T15:47:59.733Z,23.67
2024-05-09T15:50:36.278Z,23.72
2024-05-09T15:53:07.590Z,23.75
2024-05-09T15:55:35.262Z,23.73
2024-05-09T15:58:03.433Z,23.73
2024-05-09T16:00:38.697Z,23.65
2024-05-09T16:03:13.366Z,23.54
2024-05-09T16:05:42.906Z,23.44
2024-05-09T16:08:10.177Z,23.33
2024-05-09T16:10:43.441Z,23.28
2024-05-09T16:13:11.651Z,23.26
2024-05-09T16:15:38.559Z,23.22
2024-05-09T16:18:05.765Z,23.15
2024-05-09T16:20:39.035Z,23.16
2024-05-09T16:23:08.830Z,23.12
2024-05-09T16:25:35.974Z,23.17
2024-05-09T16:28:06.299Z,23.27
2024-05-09T16:30:36.474Z,23.27
2024-05-09T16:33:04.832Z,23.03
2024-05-09T16:35:32.459Z,22.62
2024-05-09T16:38:01.855Z,22.38
2024-05-09T16:40:36.370Z,22.25
2024-05-09T16:43:06.999Z,22.13
2024-05-09T16:45:34.328Z,22.00
2024-05-09T16:48:01.926Z,21.80
2024-05-09T16:50:33.782Z,21.65
2024-05-09T16:53:02.796Z,21.50
2024-05-09T16:55:29.740Z,21.37
2024-05-09T16:57:57.226Z,21.22
2024-05-09T17:00:35.413Z,21.09
2024-05-09T17:03:09.763Z,20.94
2024-05-09T17:05:37.267Z,20.80
2024-05-09T17:08:04.788Z,20.64
2024-05-09T17:10:34.130Z,20.46
2024-05-09T17:13:04.040Z,20.30
2024-05-09T17:15:32.487Z,20.14
2024-05-09T17:17:59.544Z,20.04
2024-05-09T17:20:32.691Z,19.97
2024-05-09T17:23:03.394Z,19.93
2024-05-09T17:25:30.195Z,19.91
2024-05-09T17:27:57.282Z,19.90
2024-05-09T17:30:31.503Z,19.89
2024-05-09T17:33:03.341Z,19.83
2024-05-09T17:35:30.571Z,19.81
2024-05-09T17:37:58.490Z,19.79
2024-05-09T17:40:31.456Z,19.73
2024-05-09T17:43:03.074Z,19.58
2024-05-09T17:45:30.367Z,19.41
2024-05-09T17:47:57.605Z,19.26
2024-05-09T17:50:31.377Z,19.16
2024-05-09T17:53:02.423Z,19.05
2024-05-09T17:55:29.647Z,18.93
2024-05-09T17:57:56.961Z,18.83
2024-05-09T18:00:35.704Z,18.76
2024-05-09T18:03:06.488Z,18.70
2024-05-09T18:05:36.370Z,18.64
2024-05-09T18:08:04.053Z,18.55
2024-05-09T18:10:36.654Z,18.48
2024-05-09T18:13:07.200Z,18.42
2024-05-09T18:15:34.511Z,18.39
2024-05-09T18:18:02.641Z,18.34
2024-05-09T18:20:39.313Z,18.29
2024-05-09T18:23:11.023Z,18.21
2024-05-09T18:25:37.851Z,18.17
2024-05-09T18:28:06.015Z,18.11
2024-05-09T18:30:35.580Z,18.03
2024-05-09T18:33:08.179Z,17.95
2024-05-09T18:35:36.525Z,17.91
2024-05-09T18:38:04.975Z,17.88
2024-05-09T18:40:35.708Z,17.83
2024-05-09T18:43:06.684Z,17.80
2024-05-09T18:45:35.512Z,17.73
2024-05-09T18:48:04.912Z,17.68
2024-05-09T18:50:36.299Z,17.68
2024-05-09T18:53:06.462Z,17.67
2024-05-09T18:55:33.377Z,17.66
2024-05-09T18:58:00.371Z,17.68
2024-05-09T19:00:34.319Z,17.69
2024-05-09T19:03:05.814Z,17.63
2024-05-09T19:05:35.798Z,17.57
2024-05-09T19:08:02.980Z,17.56
2024-05-09T19:10:34.274Z,17.55
2024-05-09T19:13:06.537Z,17.55
2024-05-09T19:15:37.211Z,17.48
2024-05-09T19:18:04.393Z,17.46
2024-05-09T19:20:34.558Z,17.40
2024-05-09T19:23:02.896Z,17.38
2024-05-09T19:25:29.901Z,17.36
2024-05-09T19:27:56.747Z,17.32
2024-05-09T19:30:34.631Z,17.28
2024-05-09T19:33:07.007Z,17.23
2024-05-09T19:35:33.985Z,17.22
2024-05-09T19:38:01.008Z,17.20
2024-05-09T19:40:31.797Z,17.15
2024-05-09T19:43:02.134Z,17.14
2024-05-09T19:45:29.652Z,17.11
2024-05-09T19:47:56.717Z,17.06
2024-05-09T19:50:32.235Z,16.98
2024-05-09T19:53:06.827Z,16.94
2024-05-09T19:55:34.134Z,16.91
2024-05-09T19:58:05.136Z,16.85
2024-05-09T20:00:39.426Z,16.80
2024-05-09T20:03:08.943Z,16.75
2024-05-09T20:05:36.449Z,16.70
2024-05-09T20:08:04.274Z,16.68
2024-05-09T20:10:33.341Z,16.65
2024-05-09T20:13:02.573Z,16.62
2024-05-09T20:15:29.633Z,16.57
2024-05-09T20:17:56.614Z,16.54
2024-05-09T20:20:32.618Z,16.47
2024-05-09T20:23:05.248Z,16.47
2024-05-09T20:25:31.992Z,16.39
2024-05-09T20:27:58.857Z,16.38
2024-05-09T20:30:31.592Z,16.37
2024-05-09T20:33:00.570Z,16.36
2024-05-09T20:35:30.662Z,16.36
2024-05-09T20:37:58.097Z,16.30
2024-05-09T20:40:31.207Z,16.34
2024-05-09T20:43:01.713Z,16.33
2024-05-09T20:45:28.537Z,16.29
2024-05-09T20:47:55.538Z,16.27
2024-05-09T20:50:29.231Z,16.26
2024-05-09T20:53:03.826Z,16.24
2024-05-09T20:55:30.765Z,16.21
2024-05-09T20:57:57.855Z,16.18
2024-05-09T21:00:34.373Z,16.21
2024-05-09T21:03:07.193Z,16.22
2024-05-09T21:05:35.279Z,16.19
2024-05-09T21:08:02.648Z,16.14
2024-05-09T21:10:33.357Z,16.17
2024-05-09T21:13:02.902Z,16.14
2024-05-09T21:15:30.431Z,16.13
2024-05-09T21:17:57.246Z,16.16
2024-05-09T21:20:30.618Z,16.19
2024-05-09T21:22:59.109Z,16.16
2024-05-09T21:25:26.035Z,16.17
2024-05-09T21:27:53.232Z,16.15
2024-05-09T21:30:31.471Z,16.18
2024-05-09T21:33:07.437Z,16.22
2024-05-09T21:35:34.505Z,16.18
2024-05-09T21:38:01.271Z,16.12
2024-05-09T21:40:34.140Z,16.10
2024-05-09T21:43:02.981Z,16.05
2024-05-09T21:45:29.888Z,16.02
2024-05-09T21:47:56.823Z,16.00
2024-05-09T21:50:31.814Z,15.99
2024-05-09T21:53:05.611Z,15.98
2024-05-09T21:55:32.379Z,15.98
2024-05-09T21:57:59.127Z,15.95
2024-05-09T22:00:34.251Z,15.96
2024-05-09T22:03:04.929Z,15.93
2024-05-09T22:05:32.234Z,15.84
2024-05-09T22:07:59.355Z,15.90
2024-05-09T22:10:32.382Z,15.91
2024-05-09T22:13:01.688Z,15.94
2024-05-09T22:15:28.654Z,15.95
2024-05-09T22:17:56.958Z,15.94
2024-05-09T22:20:33.078Z,15.91
2024-05-09T22:23:04.378Z,15.89
2024-05-09T22:25:32.257Z,15.87
2024-05-09T22:28:00.202Z,15.85
2024-05-09T22:30:35.543Z,15.87
2024-05-09T22:33:10.803Z,15.77
2024-05-09T22:35:38.980Z,15.79
2024-05-09T22:38:05.995Z,15.81
2024-05-09T22:40:42.397Z,15.82
2024-05-09T22:43:17.888Z,15.82
2024-05-09T22:45:44.945Z,15.81
2024-05-09T22:48:11.946Z,15.82
2024-05-09T22:50:38.941Z,15.81
2024-05-09T22:53:05.769Z,15.81
2024-05-09T22:55:32.524Z,15.83
2024-05-09T22:57:59.450Z,15.83
2024-05-09T23:00:31.301Z,15.73
2024-05-09T23:03:03.117Z,15.82
2024-05-09T23:05:32.329Z,15.81
2024-05-09T23:08:01.052Z,15.84
2024-05-09T23:10:35.073Z,15.80
2024-05-09T23:13:04.397Z,15.85
2024-05-09T23:15:31.569Z,15.85
2024-05-09T23:17:58.990Z,15.84
2024-05-09T23:20:35.968Z,15.83
2024-05-09T23:23:06.834Z,15.85
2024-05-09T23:25:34.115Z,15.81
2024-05-09T23:28:01.061Z,15.80
2024-05-09T23:30:36.518Z,15.79
2024-05-09T23:33:06.667Z,15.75
2024-05-09T23:35:33.636Z,15.75
2024-05-09T23:38:00.374Z,15.76
2024-05-09T23:40:37.326Z,15.78
2024-05-09T23:43:07.736Z,15.77
2024-05-09T23:45:35.069Z,15.74
2024-05-09T23:48:02.216Z,15.76
2024-05-09T23:53:01.042Z,15.73
2024-05-09T23:55:28.387Z,15.77
2024-05-09T23:57:58.458Z,15.72
